AirNav   Air Wisconsin Up To $57,000 Bonus
 
 889 users online  

98PN Trauma Center Heliport
Allentown, Pennsylvania, USA

GOING TO ALLENTOWN?


FAA INFORMATION EFFECTIVE 02 JANUARY 2020

Location

FAA Identifier: 98PN
Lat/Long: 40-33-40.3490N 075-31-24.6640W
40-33.672483N 075-31.411067W
40.5612081,-75.5235178
(estimated)
Elevation: 400 ft. / 122 m (estimated)
Variation: 11W (1985)
From city: 2 miles SW of ALLENTOWN, PA
Time zone: UTC -5 (UTC -4 during Daylight Saving Time)
Zip code: 18103

Heliport Operations

Heliport use: Private use. Permission required prior to landing
Activation date: 03/1983
Control tower: no
ARTCC: NEW YORK CENTER
FSS: WILLIAMSPORT FLIGHT SERVICE STATION
Attendance: CONTINUOUS
Wind indicator: lighted
Segmented circle: no
Beacon: white-green-yellow (heliport)
Operates sunset to sunrise.

Heliport Communications

WX AWOS-3 at XLL (1.7 nm E): 127.875 (610-231-3111)
WX ASOS at ABE (7 nm NE): 126.975 (610-266-3579)
WX AWOS-3 at UKT (10 nm SE): 119.475 (215-538-7610)
WX AWOS-3 at CKZ (15 nm SE): 126.325 (215-257-7291)
WX AWOS-3PT at 22N (18 nm NW): 119.350 (570-386-3423)
WX ASOS at PTW (19 nm S): 119.425 (610-495-0823)

Nearby radio navigation aids

VOR radial/distance  VOR name  Freq  Var
ETXr108/7.4EAST TEXAS VOR/DME110.2009W
FJCr208/10.4ALLENTOWN VORTAC117.5010W
PTWr014/20.4POTTSTOWN VORTAC116.5009W
ARDr313/33.7YARDLEY VOR/DME108.2010W
BWZr257/35.0BROADWAY VOR/DME114.2011W
SBJr278/35.7SOLBERG VOR/DME112.9010W
MXEr019/39.2MODENA VORTAC113.2009W
STWr240/39.6STILLWATER VOR/DME109.6011W

 
NDB name  Hdg/Dist  Freq  Var  ID
AMBLER349/28.327512WING .. -. --.

Heliport Services

Runway Information

Helipad H1

Dimensions: 60 x 60 ft. / 18 x 18 m
Surface: asphalt, in fair condition
Runway edge lights: PERI
Latitude: 40-33.672483N
Longitude: 075-31.411067W
Elevation: 400.0 ft.
Traffic pattern: leftleft
Markings: none, in fair condition

Heliport Ownership and Management from official FAA records

Ownership: Privately-owned
Owner: LEHIGH VALLEY HOSPITAL CENTER
1200 S. CEDAR CREST BLVD.
ALLENTOWN, PA 18105
Phone 610-402-8666
Manager: JOSEPH RYCEK
1200 S. CEDAR CREST BLVD.
ALLENTOWN, PA 18105
Phone 610-402-8753

Additional Remarks

100 FT POWER LINES 400 FT NORTH OF HELIPAD.
PLINES 265 FT SOUTHWEST OF HELI.
FOR CD CTC ALLENTOWN APCH AT 800-728-6322.

Instrument Procedures

There are no published instrument procedures at 98PN.

Some nearby airports with instrument procedures:

KXLL - Allentown Queen City Municipal Airport (2 nm E)
KABE - Lehigh Valley International Airport (7 nm NE)
KUKT - Quakertown Airport (10 nm SE)
KCKZ - Pennridge Airport (15 nm SE)
N43 - Braden Airpark (17 nm NE)
22N - Jake Arner Memorial Airport (18 nm NW)
N47 - Pottstown Municipal Airport (19 nm S)
KPTW - Heritage Field Airport (19 nm S)
 
Loc | Ops | Rwys | IFR | FBO | Links
Com | Nav | Svcs | Stats | Notes
Area around 98PN (Trauma Center Heliport)
 
Road maps at: MapQuest Bing Google
 
Aerial photo
No photo
 
Sectional chart

 
Airport distance calculator
Flying to Trauma Center Heliport? Find the distance to fly.

From to 98PN

Sunrise and sunset
Times for 21-Jan-2020
 Local
(UTC-5)
 Zulu
(UTC)
Morning civil twilight06:5211:52
Sunrise07:2212:22
Sunset17:0522:05
Evening civil twilight17:3522:35

Current date and time
Zulu (UTC)  22-Jan-2020 03:35:10
Local (UTC-5)  21-Jan-2020 22:35:10
 
METAR
KXLL 
2nm E 
220315Z AUTO 00000KT 10SM CLR M02/M09 A3047 RMK AO2
KABE 
6nm NE 
220251Z 27003KT 10SM CLR M03/M11 A3045 RMK AO2 SLP316 T10281111 58001
KUKT 
10nm SE 
220320Z AUTO 00000KT 10SM CLR M06/M10 A3045 RMK A01
KCKZ 
15nm SE 
220315Z AUTO 00000KT 10SM CLR M07/M11 A3045 RMK AO2
KPTW 
20nm S 
220254Z AUTO 00000KT 10SM CLR M07/M11 A3048 RMK AO2 SLP322 T10721111 50001
TAF
KABE 
6nm NE 
211722Z 2118/2218 34010KT P6SM SKC FM212300 VRB03KT P6SM SCT200 FM221600 26005KT P6SM SKC
NOTAMs
Click for the latest NOTAMs
NOTAMs are issued by the DoD/FAA and will open in a separate window not controlled by AirNav.

 

 
 

Would you like to see your business listed on this page?

 If your business provides an interesting product or service to pilots, flight crews, aircraft, or users of the Trauma Center Heliport, you should consider listing it here.  To start the listing process, click on the button below
 
Add a business
 

Other Pages about Trauma Center Heliport

Update a link
 
Copyright © AirNav, LLC. All rights reserved. Privacy Policy  Contact